NEOK1: Neosho R at Neosho Rapids, KS

                                SHEF ID:       NEOK1     NEOSHO R AT NEOSHO RAPIDS, KS
STATION TYPE:

STAGE RIV-FLOW BAT-LOAD
ft cfs volt
Ccp-Rev Ccp-Rev Ccp-Rev
(America/Chicago)
05/08 00:00 7.98 4228 12.57
05/08 01:00 7.96 4214 12.54
05/08 02:00 7.93 4192 12.53
05/08 03:00 7.91 4177 12.50
05/08 04:00 7.89 4162 12.48
05/08 05:00 7.86 4140 12.46
05/08 06:00 7.84 4126 12.42
05/08 07:00 7.82 4111 12.41
05/08 08:00 7.79 4089 12.52
05/08 09:00 7.77 4074 12.83
05/08 10:00 7.74 4052 13.17
05/08 11:00 7.71 4031 13.15
05/08 12:00 7.68 4009 ----
05/08 13:00 7.66 3994 13.07
05/08 14:00 7.64 3980 13.00
05/08 15:00 7.62 3965 12.96
05/08 16:00 7.59 3944 12.94
05/08 17:00 7.57 3929 12.93
05/08 18:00 7.55 3915 12.94
05/08 19:00 7.53 3900 12.85
05/08 20:00 7.50 3879 12.71
05/08 21:00 ---- ---- ----
05/08 22:00 ---- ---- ----
05/08 23:00 ---- ---- ----
Data processed at Sat 09May2026 01:36 GMT

NOTICE: If you are parsing this page

Please convert to using our Data API. Starting early 2026 we will be migrating to: https://water.usace.army.mil with modern pages rendered in JavaScript. When this migration completes you will no longer be able to scrape this page! CWMSDataAPI (CDA)

Timeseries IDs (TSIDs)

TSIDs used from left to right in the data table
NEOR.Stage.Inst.1Hour.0.Ccp-Rev
NEOR.Flow.Inst.1Hour.0.Ccp-Rev
NEOR.Volt-Battery Load.Inst.1Hour.0.Ccp-Rev

                            

All information presented herein is the property of the government of the United States of America and may be revised or deleted at any time without prior notice. Dissemination of this information without the expressed written consent of the Public Affairs Office, Tulsa District U.S. Army Corps of Engineers is strictly prohibited. These data are gathered electronically and, as presented, have NOT undergone any form of quality control. These data are NOT guaranteed to be valid or correct.